createdAt,value
2023-05-13T00:00:02.907Z,152004.50
2023-05-13T00:02:28.883Z,152014.63
2023-05-13T00:04:54.862Z,151999.38
2023-05-13T00:07:20.680Z,152003.22
2023-05-13T00:09:46.424Z,151993.06
2023-05-13T00:12:12.238Z,151976.59
2023-05-13T00:14:38.078Z,151949.97
2023-05-13T00:17:04.198Z,151938.56
2023-05-13T00:19:31.007Z,151947.44
2023-05-13T00:21:56.841Z,151944.88
2023-05-13T00:24:22.825Z,151960.09
2023-05-13T00:26:48.742Z,151948.72
2023-05-13T00:29:14.622Z,151969.00
2023-05-13T00:31:40.634Z,151952.50
2023-05-13T00:34:06.545Z,151963.94
2023-05-13T00:36:32.422Z,151976.59
2023-05-13T00:38:58.229Z,151984.22
2023-05-13T00:41:24.193Z,151960.09
2023-05-13T00:43:53.003Z,151969.00
2023-05-13T00:46:18.896Z,151979.13
2023-05-13T00:48:45.453Z,151975.31
2023-05-13T00:51:11.272Z,151977.84
2023-05-13T00:53:38.674Z,151976.59
2023-05-13T00:56:04.979Z,151976.59
2023-05-13T00:58:30.830Z,151975.31
2023-05-13T01:01:12.586Z,151967.72
2023-05-13T01:04:00.004Z,151952.50
2023-05-13T01:06:36.051Z,151933.50
2023-05-13T01:09:16.528Z,151938.56
2023-05-13T01:11:46.613Z,151925.88
2023-05-13T01:14:18.911Z,151932.22
2023-05-13T01:17:14.702Z,151919.53
2023-05-13T01:19:48.360Z,151906.84
2023-05-13T01:22:14.322Z,151881.50
2023-05-13T01:24:40.221Z,151853.59
2023-05-13T01:27:06.599Z,151832.06
2023-05-13T01:29:32.954Z,151837.13
2023-05-13T01:32:00.072Z,151829.53
2023-05-13T01:34:27.130Z,151809.28
2023-05-13T01:36:53.389Z,151818.13
2023-05-13T01:39:19.652Z,151797.84
2023-05-13T01:41:45.640Z,151806.75
2023-05-13T01:44:11.499Z,151805.47
2023-05-13T01:46:42.660Z,151776.31
2023-05-13T01:49:09.492Z,151751.00
2023-05-13T01:51:37.148Z,151739.53
2023-05-13T01:54:03.850Z,151742.06
2023-05-13T01:56:29.740Z,151743.31
2023-05-13T01:58:55.747Z,151721.78
2023-05-13T02:01:22.767Z,151677.47
2023-05-13T02:03:49.225Z,151697.72
2023-05-13T02:06:15.220Z,151729.41
2023-05-13T02:08:41.068Z,151721.78
2023-05-13T02:11:06.910Z,151719.25
2023-05-13T02:13:32.749Z,151710.38
2023-05-13T02:15:58.620Z,151723.06
2023-05-13T02:18:24.788Z,151729.41
2023-05-13T02:20:50.893Z,151730.69
2023-05-13T02:23:17.036Z,151718.00
2023-05-13T02:25:43.752Z,151734.47
2023-05-13T02:28:10.081Z,151724.31
2023-05-13T02:30:36.267Z,151700.25
2023-05-13T02:33:02.295Z,151709.09
2023-05-13T02:35:29.450Z,151751.00
2023-05-13T02:37:56.191Z,151725.56
2023-05-13T02:40:22.419Z,151733.22
2023-05-13T02:42:48.725Z,151739.53
2023-05-13T02:45:14.719Z,151733.22
2023-05-13T02:47:40.636Z,151735.72
2023-05-13T02:50:09.226Z,151738.25
2023-05-13T02:52:35.966Z,151723.06
2023-05-13T02:55:02.841Z,151724.31
2023-05-13T02:57:32.369Z,151734.47
2023-05-13T02:59:58.363Z,151739.53
2023-05-13T03:02:24.365Z,151720.53
2023-05-13T03:04:50.203Z,151738.25
2023-05-13T03:07:16.074Z,151690.09
2023-05-13T03:09:41.924Z,151686.31
2023-05-13T03:12:08.418Z,151702.78
2023-05-13T03:14:36.178Z,151692.63
2023-05-13T03:17:05.974Z,151676.19
2023-05-13T03:19:33.495Z,151678.72
2023-05-13T03:21:59.389Z,151663.53
2023-05-13T03:24:25.250Z,151669.84
2023-05-13T03:26:51.088Z,151659.72
2023-05-13T03:29:16.917Z,151653.38
2023-05-13T03:31:42.995Z,151653.38
2023-05-13T03:34:09.420Z,151655.88
2023-05-13T03:36:35.257Z,151654.63
2023-05-13T03:39:01.179Z,151643.25
2023-05-13T03:41:27.588Z,151634.38
2023-05-13T03:43:53.930Z,151634.38
2023-05-13T03:46:20.713Z,151638.16
2023-05-13T03:48:46.706Z,151639.47
2023-05-13T03:51:12.733Z,151638.16
2023-05-13T03:53:38.523Z,151644.53
2023-05-13T03:56:04.961Z,151629.31
2023-05-13T03:58:30.831Z,151605.28
2023-05-13T04:00:56.724Z,151621.75
2023-05-13T04:03:24.851Z,151626.78
2023-05-13T04:05:51.355Z,151633.09
2023-05-13T04:08:17.216Z,151614.09
2023-05-13T04:10:43.216Z,151643.25
2023-05-13T04:13:09.145Z,151645.78
2023-05-13T04:15:35.099Z,151649.56
2023-05-13T04:18:01.071Z,151671.09
2023-05-13T04:20:28.339Z,151663.53
2023-05-13T04:22:54.225Z,151595.13
2023-05-13T04:25:20.212Z,151595.13
2023-05-13T04:27:46.976Z,151602.69
2023-05-13T04:30:13.492Z,151607.78
2023-05-13T04:32:39.633Z,151617.91
2023-05-13T04:35:08.869Z,151636.91
2023-05-13T04:37:34.748Z,151636.91
2023-05-13T04:40:00.597Z,151673.63
2023-05-13T04:42:26.535Z,151673.63
2023-05-13T04:44:52.376Z,151691.38
2023-05-13T04:47:18.357Z,151701.53
2023-05-13T04:49:44.230Z,151719.25
2023-05-13T04:52:12.413Z,151721.78
2023-05-13T04:54:38.863Z,151731.94
2023-05-13T04:57:05.422Z,151729.41
2023-05-13T04:59:31.794Z,151726.84
2023-05-13T05:01:57.805Z,151720.53
2023-05-13T05:04:24.697Z,151748.47
2023-05-13T05:06:50.599Z,151747.16
2023-05-13T05:09:17.141Z,151731.94
2023-05-13T05:11:42.918Z,151749.72
2023-05-13T05:14:08.742Z,151753.53
2023-05-13T05:16:34.561Z,151735.72
2023-05-13T05:19:00.449Z,151749.72
2023-05-13T05:21:26.293Z,151785.22
2023-05-13T05:23:52.095Z,151754.78
2023-05-13T05:26:17.959Z,151763.63
2023-05-13T05:28:44.848Z,151768.72
2023-05-13T05:31:10.721Z,151758.56
2023-05-13T05:33:37.312Z,151754.78
2023-05-13T05:36:03.348Z,151786.47
2023-05-13T05:38:29.196Z,151782.63
2023-05-13T05:40:55.261Z,151778.84
2023-05-13T05:43:21.140Z,151775.06
2023-05-13T05:45:47.074Z,151781.38
2023-05-13T05:48:12.962Z,151797.84
2023-05-13T05:50:38.890Z,151824.50
2023-05-13T05:53:06.320Z,151857.44
2023-05-13T05:55:32.412Z,151873.94
2023-05-13T05:58:03.134Z,151898.00
2023-05-13T06:00:29.602Z,151929.69
2023-05-13T06:02:56.618Z,151957.56
2023-05-13T06:05:22.972Z,152003.22
2023-05-13T06:07:48.829Z,152000.72
2023-05-13T06:10:14.848Z,152026.03
2023-05-13T06:12:41.178Z,152075.50
2023-05-13T06:15:10.769Z,152040.00
2023-05-13T06:17:37.056Z,152050.13
2023-05-13T06:20:03.594Z,152034.91
2023-05-13T06:22:29.575Z,152043.81
2023-05-13T06:24:55.658Z,152095.84
2023-05-13T06:27:21.881Z,152075.50
2023-05-13T06:29:48.054Z,152086.91
2023-05-13T06:32:14.587Z,152107.22
2023-05-13T06:34:44.865Z,152103.44
2023-05-13T06:37:12.864Z,152116.13
2023-05-13T06:39:39.339Z,152126.31
2023-05-13T06:42:05.562Z,152159.25
2023-05-13T06:44:31.428Z,152154.19
2023-05-13T06:46:57.346Z,152192.25
2023-05-13T06:49:26.013Z,152215.06
2023-05-13T06:51:52.039Z,152241.72
2023-05-13T06:54:17.934Z,152221.44
2023-05-13T06:56:43.846Z,152240.47
2023-05-13T06:59:09.713Z,152263.28
2023-05-13T07:01:38.611Z,152245.53
2023-05-13T07:04:05.116Z,152222.72
2023-05-13T07:06:31.048Z,152232.81
2023-05-13T07:08:56.955Z,152229.03
2023-05-13T07:11:23.663Z,152221.44
2023-05-13T07:13:49.664Z,152223.97
2023-05-13T07:16:16.856Z,152268.34
2023-05-13T07:18:43.035Z,152333.09
2023-05-13T07:21:09.039Z,152377.50
2023-05-13T07:23:35.240Z,152425.81
2023-05-13T07:26:01.251Z,152475.31
2023-05-13T07:28:27.114Z,152504.50
2023-05-13T07:30:53.063Z,152538.78
2023-05-13T07:33:19.192Z,152552.78
2023-05-13T07:35:45.161Z,152570.56
2023-05-13T07:38:11.437Z,152571.81
2023-05-13T07:40:37.922Z,152568.00
2023-05-13T07:43:04.113Z,152545.16
2023-05-13T07:45:29.951Z,152571.81
2023-05-13T07:47:56.267Z,152618.81
2023-05-13T07:50:23.596Z,152651.88
2023-05-13T07:52:51.040Z,152679.78
2023-05-13T07:55:17.677Z,152668.38
2023-05-13T07:57:43.826Z,152644.22
2023-05-13T08:00:10.136Z,152660.72
2023-05-13T08:02:39.391Z,152684.84
2023-05-13T08:05:05.954Z,152692.50
2023-05-13T08:07:31.893Z,152696.34
2023-05-13T08:09:57.742Z,152695.03
2023-05-13T08:12:23.704Z,152689.97
2023-05-13T08:14:49.485Z,152738.25
2023-05-13T08:17:17.491Z,152717.94
2023-05-13T08:19:43.326Z,152748.44
2023-05-13T08:22:09.227Z,152748.44
2023-05-13T08:24:35.358Z,152781.50
2023-05-13T08:27:01.998Z,152813.28
2023-05-13T08:29:27.828Z,152814.53
2023-05-13T08:31:53.849Z,152818.34
2023-05-13T08:34:19.812Z,152870.47
2023-05-13T08:36:45.614Z,152833.59
2023-05-13T08:39:11.547Z,152825.94
2023-05-13T08:41:38.365Z,152803.09
2023-05-13T08:44:06.152Z,152842.47
2023-05-13T08:46:34.236Z,152881.88
2023-05-13T08:49:01.123Z,152907.31
2023-05-13T08:51:27.301Z,152918.72
2023-05-13T08:53:54.638Z,152917.47
2023-05-13T08:56:23.597Z,152960.72
2023-05-13T08:58:49.465Z,152978.56
2023-05-13T09:01:16.284Z,152983.63
2023-05-13T09:03:54.327Z,152998.91
2023-05-13T09:06:20.498Z,153012.88
2023-05-13T09:08:46.419Z,153003.97
2023-05-13T09:11:12.486Z,153011.63
2023-05-13T09:13:38.395Z,153056.09
2023-05-13T09:16:06.461Z,153052.31
2023-05-13T09:18:33.627Z,153029.44
2023-05-13T09:21:24.090Z,153042.09
2023-05-13T09:23:55.533Z,153080.25
2023-05-13T09:26:29.245Z,153089.19
2023-05-13T09:29:34.094Z,153124.78
2023-05-13T09:32:00.996Z,153133.66
2023-05-13T09:34:31.849Z,153152.75
2023-05-13T09:37:08.165Z,153173.09
2023-05-13T09:39:39.517Z,153215.09
2023-05-13T09:42:05.866Z,153190.91
2023-05-13T09:44:32.407Z,153213.84
2023-05-13T09:47:01.728Z,153252.03
2023-05-13T09:49:28.066Z,153320.75
2023-05-13T09:51:54.337Z,153370.34
2023-05-13T09:54:20.279Z,153404.72
2023-05-13T09:56:46.107Z,153395.84
2023-05-13T09:59:11.996Z,153422.53
2023-05-13T10:01:39.800Z,153444.19
2023-05-13T10:04:06.482Z,153486.28
2023-05-13T10:06:33.496Z,153510.44
2023-05-13T10:09:03.333Z,153590.69
2023-05-13T10:11:31.446Z,153595.78
2023-05-13T10:14:05.477Z,153583.03
2023-05-13T10:16:32.426Z,153631.44
2023-05-13T10:18:59.071Z,153650.53
2023-05-13T10:21:26.849Z,153597.03
2023-05-13T10:23:53.119Z,153565.19
2023-05-13T10:26:23.053Z,153648.00
2023-05-13T10:28:49.254Z,153681.09
2023-05-13T10:31:17.890Z,153673.44
2023-05-13T10:33:44.631Z,153645.44
2023-05-13T10:36:30.125Z,153552.44
2023-05-13T10:39:36.391Z,153450.56
2023-05-13T10:42:20.847Z,153389.44
2023-05-13T10:44:51.270Z,153428.94
2023-05-13T10:47:17.227Z,153537.22
2023-05-13T10:49:52.769Z,153509.19
2023-05-13T10:52:19.397Z,153428.94
2023-05-13T10:55:00.628Z,153583.03
2023-05-13T10:58:16.129Z,153669.63
2023-05-13T11:00:44.531Z,153738.47
2023-05-13T11:03:11.890Z,153679.78
2023-05-13T11:05:40.004Z,153669.63
2023-05-13T11:08:06.110Z,153785.56
2023-05-13T11:10:32.265Z,153780.50
2023-05-13T11:13:13.151Z,153670.91
2023-05-13T11:15:54.064Z,153686.25
2023-05-13T11:18:28.455Z,153658.16
2023-05-13T11:20:54.501Z,153845.50
2023-05-13T11:23:20.511Z,153901.56
2023-05-13T11:26:06.533Z,153907.97
2023-05-13T11:28:55.468Z,153761.38
2023-05-13T11:31:21.986Z,153709.16
2023-05-13T11:34:10.794Z,153744.81
2023-05-13T11:36:45.149Z,153860.75
2023-05-13T11:39:22.171Z,154012.50
2023-05-13T11:41:48.849Z,154152.81
2023-05-13T11:44:17.128Z,154131.09
2023-05-13T11:47:09.266Z,154083.88
2023-05-13T11:49:39.470Z,154101.75
2023-05-13T11:52:33.022Z,153989.56
2023-05-13T11:54:58.942Z,153891.34
2023-05-13T11:57:25.973Z,154025.19
2023-05-13T12:00:02.108Z,154194.88
2023-05-13T12:02:31.014Z,154316.09
2023-05-13T12:05:07.997Z,154281.59
2023-05-13T12:07:34.588Z,154302.00
2023-05-13T12:10:02.235Z,154390.09
2023-05-13T12:12:29.319Z,154377.31
2023-05-13T12:14:58.911Z,154413.06
2023-05-13T12:17:25.833Z,154425.81
2023-05-13T12:20:11.836Z,154488.34
2023-05-13T12:22:43.908Z,154409.25
2023-05-13T12:25:50.322Z,154368.38
2023-05-13T12:28:24.844Z,154365.81
2023-05-13T12:30:57.972Z,154395.19
2023-05-13T12:33:28.932Z,154305.84
2023-05-13T12:36:19.405Z,154281.59
2023-05-13T12:39:00.445Z,154304.56
2023-05-13T12:41:29.331Z,154300.75
2023-05-13T12:44:00.217Z,154270.09
2023-05-13T12:46:26.979Z,154387.50
2023-05-13T12:48:57.844Z,154346.69
2023-05-13T12:51:24.123Z,154451.31
2023-05-13T12:53:51.541Z,154396.47
2023-05-13T12:56:21.542Z,154368.38
2023-05-13T12:58:48.050Z,154302.00
2023-05-13T13:01:13.911Z,154379.88
2023-05-13T13:03:40.326Z,154303.28
2023-05-13T13:06:06.481Z,154332.66
2023-05-13T13:08:32.490Z,154322.47
2023-05-13T13:10:59.743Z,154294.31
2023-05-13T13:13:26.219Z,154424.50
2023-05-13T13:15:52.674Z,154511.34
2023-05-13T13:18:18.864Z,154536.91
2023-05-13T13:20:44.693Z,154432.19
2023-05-13T13:23:10.604Z,154489.59
2023-05-13T13:25:36.789Z,154497.28
2023-05-13T13:28:02.708Z,154563.69
2023-05-13T13:30:30.324Z,154660.72
2023-05-13T13:32:56.179Z,154605.78
2023-05-13T13:35:22.305Z,154664.56
2023-05-13T13:37:48.329Z,154730.97
2023-05-13T13:40:14.265Z,154653.03
2023-05-13T13:42:44.784Z,154736.09
2023-05-13T13:45:12.688Z,154871.47
2023-05-13T13:47:38.824Z,154792.28
2023-05-13T13:50:05.665Z,154556.03
2023-05-13T13:52:31.544Z,154547.09
2023-05-13T13:54:57.529Z,154344.16
2023-05-13T13:57:23.619Z,154110.63
2023-05-13T13:59:49.571Z,153997.19
2023-05-13T14:02:16.659Z,154031.59
2023-05-13T14:04:42.608Z,153876.03
2023-05-13T14:07:08.561Z,153741.00
2023-05-13T14:09:34.395Z,153622.50
2023-05-13T14:12:00.257Z,153580.47
2023-05-13T14:14:26.239Z,153425.09
2023-05-13T14:16:52.112Z,153375.50
2023-05-13T14:19:18.542Z,153260.94
2023-05-13T14:21:45.639Z,153104.44
2023-05-13T14:24:11.685Z,153080.25
2023-05-13T14:26:38.323Z,153007.78
2023-05-13T14:29:04.406Z,152960.72
2023-05-13T14:31:30.288Z,152916.19
2023-05-13T14:33:56.380Z,152785.28
2023-05-13T14:36:23.576Z,152842.47
2023-05-13T14:38:49.654Z,152862.81
2023-05-13T14:41:19.185Z,152908.59
2023-05-13T14:43:46.237Z,152916.19
2023-05-13T14:46:13.184Z,152917.47
2023-05-13T14:48:39.440Z,152987.44
2023-05-13T14:51:05.696Z,152976.03
2023-05-13T14:53:31.635Z,152997.63
2023-05-13T14:55:57.613Z,153105.72
2023-05-13T14:58:24.873Z,153273.66
2023-05-13T15:00:50.875Z,153444.19
2023-05-13T15:03:17.358Z,153537.22
2023-05-13T15:05:44.910Z,153707.88
2023-05-13T15:08:10.958Z,153854.38
2023-05-13T15:10:36.815Z,153929.63
2023-05-13T15:13:02.669Z,153998.47
2023-05-13T15:15:28.486Z,153937.28
2023-05-13T15:17:54.413Z,153853.13
2023-05-13T15:20:20.505Z,153583.03
2023-05-13T15:22:46.402Z,153523.19
2023-05-13T15:25:12.339Z,153437.84
2023-05-13T15:27:38.187Z,153585.56
2023-05-13T15:30:04.489Z,153658.16
2023-05-13T15:32:30.481Z,153770.28
2023-05-13T15:34:56.402Z,153853.13
2023-05-13T15:37:22.275Z,153893.88
2023-05-13T15:39:48.603Z,153942.38
2023-05-13T15:42:15.090Z,154040.50
2023-05-13T15:44:40.882Z,154063.50
2023-05-13T15:47:07.014Z,154068.59
2023-05-13T15:49:32.954Z,154001.00
2023-05-13T15:51:59.693Z,154048.19
2023-05-13T15:54:25.649Z,154077.47
2023-05-13T15:56:52.230Z,154122.19
2023-05-13T15:59:18.360Z,154063.50
2023-05-13T16:01:45.882Z,154055.81
2023-05-13T16:04:11.739Z,154046.91
2023-05-13T16:06:37.697Z,153979.34
2023-05-13T16:09:03.713Z,153853.13
2023-05-13T16:11:29.908Z,153716.78
2023-05-13T16:13:55.925Z,153621.22
2023-05-13T16:16:22.049Z,153562.66
2023-05-13T16:18:48.375Z,153537.22
2023-05-13T16:21:14.443Z,153558.84
2023-05-13T16:23:40.570Z,153501.56
2023-05-13T16:26:06.766Z,153491.34
2023-05-13T16:28:32.711Z,153386.91
2023-05-13T16:30:58.807Z,153390.72
2023-05-13T16:33:24.869Z,153358.94
2023-05-13T16:35:50.832Z,153296.56
2023-05-13T16:38:16.800Z,153350.00
2023-05-13T16:40:43.020Z,153227.84
2023-05-13T16:43:08.979Z,153206.19
2023-05-13T16:45:35.070Z,153189.63
2023-05-13T16:48:01.123Z,153057.38
2023-05-13T16:50:27.140Z,153000.16
2023-05-13T16:52:53.820Z,152862.81
2023-05-13T16:55:20.057Z,152879.34
2023-05-13T16:57:46.238Z,152837.41
2023-05-13T17:00:13.753Z,152808.16
2023-05-13T17:02:39.927Z,152773.84
2023-05-13T17:05:06.126Z,152767.50
2023-05-13T17:07:32.051Z,152772.56
2023-05-13T17:09:57.900Z,152798.00
2023-05-13T17:12:25.940Z,152823.41
2023-05-13T17:14:51.932Z,152839.94
2023-05-13T17:17:17.782Z,152853.94
2023-05-13T17:19:43.791Z,152871.72
2023-05-13T17:22:09.674Z,152869.19
2023-05-13T17:24:35.651Z,152895.84
2023-05-13T17:27:03.718Z,152888.25
2023-05-13T17:29:29.657Z,152888.25
2023-05-13T17:31:55.508Z,152873.00
2023-05-13T17:34:21.473Z,152861.53
2023-05-13T17:36:49.865Z,152879.34
2023-05-13T17:39:16.231Z,152880.59
2023-05-13T17:41:42.094Z,152895.84
2023-05-13T17:44:07.930Z,152886.97
2023-05-13T17:46:33.866Z,152880.59
2023-05-13T17:48:59.865Z,152862.81
2023-05-13T17:51:25.747Z,152859.00
2023-05-13T17:53:51.643Z,152853.94
2023-05-13T17:56:17.486Z,152871.72
2023-05-13T17:58:43.323Z,152892.06
2023-05-13T18:01:09.248Z,152903.50
2023-05-13T18:03:35.324Z,152847.53
2023-05-13T18:06:01.350Z,152848.84
2023-05-13T18:08:27.534Z,152873.00
2023-05-13T18:10:53.360Z,152935.25
2023-05-13T18:13:19.273Z,152928.91
2023-05-13T18:15:45.188Z,152991.25
2023-05-13T18:18:11.366Z,153070.09
2023-05-13T18:20:39.510Z,153044.63
2023-05-13T18:23:05.617Z,153051.03
2023-05-13T18:25:31.785Z,153049.75
2023-05-13T18:27:58.060Z,153031.97
2023-05-13T18:30:24.203Z,153048.50
2023-05-13T18:32:50.343Z,152950.53
2023-05-13T18:35:16.333Z,152984.91
2023-05-13T18:37:42.602Z,152968.38
2023-05-13T18:40:09.109Z,152958.16
2023-05-13T18:42:35.122Z,152940.38
2023-05-13T18:45:01.108Z,152916.19
2023-05-13T18:47:27.122Z,152886.97
2023-05-13T18:49:53.036Z,152837.41
2023-05-13T18:52:18.891Z,152819.63
2023-05-13T18:54:44.888Z,152803.09
2023-05-13T18:57:10.930Z,152771.31
2023-05-13T18:59:36.851Z,152764.97
2023-05-13T19:02:02.933Z,152712.88
2023-05-13T19:04:29.232Z,152675.97
2023-05-13T19:06:55.450Z,152580.72
2023-05-13T19:09:24.160Z,152543.91
2023-05-13T19:11:50.024Z,152493.09
2023-05-13T19:14:15.960Z,152522.28
2023-05-13T19:16:43.657Z,152551.50
2023-05-13T19:19:10.198Z,152528.66
2023-05-13T19:21:36.344Z,152495.63
2023-05-13T19:24:02.777Z,152507.09
2023-05-13T19:26:29.342Z,152518.47
2023-05-13T19:28:55.937Z,152514.69
2023-05-13T19:31:22.024Z,152557.84
2023-05-13T19:33:48.029Z,152556.56
2023-05-13T19:36:13.899Z,152560.41
2023-05-13T19:38:39.863Z,152545.16
2023-05-13T19:41:05.804Z,152532.47
2023-05-13T19:43:31.693Z,152491.84
2023-05-13T19:45:57.885Z,152455.03
2023-05-13T19:48:24.920Z,152428.34
2023-05-13T19:50:52.618Z,152347.06
2023-05-13T19:55:46.994Z,152316.59
2023-05-13T19:58:12.902Z,152373.69
2023-05-13T20:00:38.818Z,152401.66
2023-05-13T20:03:05.589Z,152404.19
2023-05-13T20:05:31.692Z,152401.66
2023-05-13T20:07:57.591Z,152419.47
2023-05-13T20:10:23.864Z,152419.47
2023-05-13T20:12:50.212Z,152424.53
2023-05-13T20:15:18.404Z,152438.50
2023-05-13T20:17:44.659Z,152433.44
2023-05-13T20:20:10.967Z,152441.03
2023-05-13T20:22:37.374Z,152446.09
2023-05-13T20:25:03.425Z,152432.13
2023-05-13T20:27:29.330Z,152435.97
2023-05-13T20:29:56.195Z,152387.69
2023-05-13T20:32:24.368Z,152400.38
2023-05-13T20:34:53.799Z,152385.16
2023-05-13T20:37:23.311Z,152354.66
2023-05-13T20:39:49.916Z,152343.28
2023-05-13T20:42:16.062Z,152353.41
2023-05-13T20:44:42.924Z,152361.03
2023-05-13T20:47:09.579Z,152372.44
2023-05-13T20:49:36.200Z,152335.63
2023-05-13T20:52:08.441Z,152309.00
2023-05-13T20:54:38.160Z,152303.88
2023-05-13T20:57:04.606Z,152296.28
2023-05-13T20:59:32.182Z,152295.03
2023-05-13T21:01:59.490Z,152273.47
2023-05-13T21:04:26.688Z,152269.63
2023-05-13T21:06:52.920Z,152258.22
2023-05-13T21:09:20.741Z,152204.94
2023-05-13T21:11:52.272Z,152182.13
2023-05-13T21:14:18.086Z,152140.22
2023-05-13T21:16:44.007Z,152164.34
2023-05-13T21:19:18.685Z,152164.34
2023-05-13T21:21:44.629Z,152119.94
2023-05-13T21:24:10.524Z,152149.13
2023-05-13T21:26:37.561Z,152121.19
2023-05-13T21:29:03.440Z,152130.09
2023-05-13T21:31:29.633Z,152131.38
2023-05-13T21:33:55.505Z,152154.19
2023-05-13T21:36:21.370Z,152131.38
2023-05-13T21:38:47.225Z,152130.09
2023-05-13T21:41:13.043Z,152149.13
2023-05-13T21:43:38.873Z,152116.13
2023-05-13T21:46:05.832Z,152112.34
2023-05-13T21:48:31.750Z,152113.63
2023-05-13T21:50:57.641Z,152071.66
2023-05-13T21:53:24.969Z,152060.28
2023-05-13T21:55:51.339Z,152042.53
2023-05-13T21:58:17.551Z,152100.91
2023-05-13T22:00:43.400Z,152076.78
2023-05-13T22:03:09.432Z,152022.25
2023-05-13T22:05:41.481Z,152019.72
2023-05-13T22:08:07.408Z,152038.75
2023-05-13T22:10:33.313Z,152088.16
2023-05-13T22:12:59.250Z,152119.94
2023-05-13T22:15:25.143Z,152111.09
2023-05-13T22:17:51.571Z,152155.44
2023-05-13T22:20:17.559Z,152141.50
2023-05-13T22:22:43.449Z,152141.50
2023-05-13T22:25:09.457Z,152142.75
2023-05-13T22:27:35.381Z,152150.41
2023-05-13T22:30:01.337Z,152149.13
2023-05-13T22:32:27.381Z,152168.16
2023-05-13T22:34:53.290Z,152160.50
2023-05-13T22:37:19.139Z,152141.50
2023-05-13T22:39:44.952Z,152125.00
2023-05-13T22:42:10.804Z,152138.97
2023-05-13T22:44:36.663Z,152107.22
2023-05-13T22:47:02.765Z,152125.00
2023-05-13T22:49:28.633Z,152098.38
2023-05-13T22:51:54.469Z,152089.44
2023-05-13T22:54:20.332Z,152093.28
2023-05-13T22:56:46.106Z,152111.09
2023-05-13T22:59:11.918Z,152066.63
2023-05-13T23:01:37.908Z,152080.56
2023-05-13T23:04:04.931Z,152060.28
2023-05-13T23:06:30.779Z,152079.31
2023-05-13T23:08:57.128Z,152069.16
2023-05-13T23:11:23.037Z,152015.88
2023-05-13T23:13:48.898Z,151998.13
2023-05-13T23:16:14.984Z,152000.72
2023-05-13T23:18:40.902Z,152000.72
2023-05-13T23:21:08.412Z,151994.34
2023-05-13T23:23:34.351Z,152000.72
2023-05-13T23:26:00.217Z,151967.72
2023-05-13T23:28:26.151Z,151981.63
2023-05-13T23:30:53.478Z,151937.28
2023-05-13T23:33:19.646Z,151981.63
2023-05-13T23:35:52.173Z,151970.25
2023-05-13T23:38:18.230Z,151994.34
2023-05-13T23:40:44.055Z,151986.75
2023-05-13T23:43:09.943Z,152003.22
2023-05-13T23:45:35.775Z,152038.75
2023-05-13T23:48:01.935Z,152019.72
2023-05-13T23:50:27.821Z,151981.63
2023-05-13T23:52:53.719Z,151990.53
2023-05-13T23:55:19.738Z,151981.63
2023-05-13T23:57:46.711Z,151996.88
